sensor_id;sensor_type;location;lat;lon;timestamp;P1;durP1;ratioP1;P2;durP2;ratioP2
47519;SDS011;33252;48.122;11.538;2022-11-15T00:01:35;6.82;;;4.97;;
47519;SDS011;33252;48.122;11.538;2022-11-15T00:04:04;7.28;;;5.32;;
47519;SDS011;33252;48.122;11.538;2022-11-15T00:06:30;11.07;;;5.50;;
47519;SDS011;33252;48.122;11.538;2022-11-15T00:08:59;7.97;;;4.85;;
47519;SDS011;33252;48.122;11.538;2022-11-15T00:11:25;8.70;;;5.35;;
47519;SDS011;33252;48.122;11.538;2022-11-15T00:13:54;6.18;;;4.35;;
47519;SDS011;33252;48.122;11.538;2022-11-15T00:16:23;6.95;;;4.20;;
47519;SDS011;33252;48.122;11.538;2022-11-15T00:18:49;5.97;;;4.32;;
47519;SDS011;33252;48.122;11.538;2022-11-15T00:21:15;7.20;;;4.78;;
47519;SDS011;33252;48.122;11.538;2022-11-15T00:23:42;4.97;;;3.63;;
47519;SDS011;33252;48.122;11.538;2022-11-15T00:26:10;5.95;;;3.92;;
47519;SDS011;33252;48.122;11.538;2022-11-15T00:28:38;7.90;;;4.57;;
47519;SDS011;33252;48.122;11.538;2022-11-15T00:31:04;6.55;;;4.68;;
47519;SDS011;33252;48.122;11.538;2022-11-15T00:33:32;6.25;;;3.67;;
47519;SDS011;33252;48.122;11.538;2022-11-15T00:36:05;6.72;;;5.13;;
47519;SDS011;33252;48.122;11.538;2022-11-15T00:38:34;5.93;;;4.45;;
47519;SDS011;33252;48.122;11.538;2022-11-15T00:41:01;8.68;;;5.03;;
47519;SDS011;33252;48.122;11.538;2022-11-15T00:43:28;7.13;;;4.40;;
47519;SDS011;33252;48.122;11.538;2022-11-15T00:45:54;7.20;;;4.55;;
47519;SDS011;33252;48.122;11.538;2022-11-15T00:48:19;9.52;;;4.65;;
47519;SDS011;33252;48.122;11.538;2022-11-15T00:50:45;5.10;;;4.03;;
47519;SDS011;33252;48.122;11.538;2022-11-15T00:53:11;4.75;;;3.63;;
47519;SDS011;33252;48.122;11.538;2022-11-15T00:55:36;5.10;;;3.90;;
47519;SDS011;33252;48.122;11.538;2022-11-15T00:58:02;5.82;;;3.65;;
47519;SDS011;33252;48.122;11.538;2022-11-15T01:00:28;4.93;;;4.00;;
47519;SDS011;33252;48.122;11.538;2022-11-15T01:02:54;5.43;;;3.70;;
47519;SDS011;33252;48.122;11.538;2022-11-15T01:05:20;4.63;;;3.78;;
47519;SDS011;33252;48.122;11.538;2022-11-15T01:07:45;9.38;;;4.50;;
47519;SDS011;33252;48.122;11.538;2022-11-15T01:10:11;9.00;;;4.25;;
47519;SDS011;33252;48.122;11.538;2022-11-15T01:12:37;5.28;;;3.88;;
47519;SDS011;33252;48.122;11.538;2022-11-15T01:15:03;4.65;;;3.83;;
47519;SDS011;33252;48.122;11.538;2022-11-15T01:17:30;5.60;;;5.00;;
47519;SDS011;33252;48.122;11.538;2022-11-15T01:19:56;6.85;;;3.67;;
47519;SDS011;33252;48.122;11.538;2022-11-15T01:22:21;6.72;;;3.65;;
47519;SDS011;33252;48.122;11.538;2022-11-15T01:24:48;6.82;;;3.83;;
47519;SDS011;33252;48.122;11.538;2022-11-15T01:27:15;7.40;;;3.47;;
47519;SDS011;33252;48.122;11.538;2022-11-15T01:29:40;4.93;;;3.20;;
47519;SDS011;33252;48.122;11.538;2022-11-15T01:32:06;4.47;;;3.20;;
47519;SDS011;33252;48.122;11.538;2022-11-15T01:34:32;4.35;;;3.42;;
47519;SDS011;33252;48.122;11.538;2022-11-15T01:36:57;5.03;;;3.60;;
47519;SDS011;33252;48.122;11.538;2022-11-15T01:39:23;4.57;;;3.38;;
47519;SDS011;33252;48.122;11.538;2022-11-15T01:41:49;5.93;;;3.35;;
47519;SDS011;33252;48.122;11.538;2022-11-15T01:46:56;3.55;;;2.80;;
47519;SDS011;33252;48.122;11.538;2022-11-15T01:49:24;6.47;;;3.38;;
47519;SDS011;33252;48.122;11.538;2022-11-15T01:51:52;4.15;;;2.65;;
47519;SDS011;33252;48.122;11.538;2022-11-15T01:54:19;3.92;;;2.65;;
47519;SDS011;33252;48.122;11.538;2022-11-15T01:56:48;5.25;;;2.65;;
47519;SDS011;33252;48.122;11.538;2022-11-15T01:59:21;3.85;;;3.05;;
47519;SDS011;33252;48.122;11.538;2022-11-15T02:01:47;6.18;;;3.13;;
47519;SDS011;33252;48.122;11.538;2022-11-15T02:04:15;4.85;;;3.53;;
47519;SDS011;33252;48.122;11.538;2022-11-15T02:06:44;6.13;;;3.22;;
47519;SDS011;33252;48.122;11.538;2022-11-15T02:09:13;4.10;;;3.00;;
47519;SDS011;33252;48.122;11.538;2022-11-15T02:11:39;3.55;;;2.67;;
47519;SDS011;33252;48.122;11.538;2022-11-15T02:14:05;3.70;;;2.30;;
47519;SDS011;33252;48.122;11.538;2022-11-15T02:28:06;3.80;;;2.13;;
47519;SDS011;33252;48.122;11.538;2022-11-15T02:30:42;4.05;;;2.45;;
47519;SDS011;33252;48.122;11.538;2022-11-15T02:39:11;3.78;;;2.58;;
47519;SDS011;33252;48.122;11.538;2022-11-15T02:41:54;2.90;;;2.15;;
47519;SDS011;33252;48.122;11.538;2022-11-15T02:44:38;2.30;;;2.05;;
47519;SDS011;33252;48.122;11.538;2022-11-15T02:47:11;3.13;;;2.47;;
47519;SDS011;33252;48.122;11.538;2022-11-15T02:49:42;2.95;;;2.38;;
47519;SDS011;33252;48.122;11.538;2022-11-15T02:52:15;5.60;;;2.25;;
47519;SDS011;33252;48.122;11.538;2022-11-15T02:54:41;3.08;;;1.70;;
47519;SDS011;33252;48.122;11.538;2022-11-15T02:57:15;2.88;;;2.30;;
47519;SDS011;33252;48.122;11.538;2022-11-15T03:05:23;3.25;;;2.30;;
47519;SDS011;33252;48.122;11.538;2022-11-15T03:11:07;4.00;;;2.45;;
47519;SDS011;33252;48.122;11.538;2022-11-15T03:21:55;3.83;;;2.17;;
47519;SDS011;33252;48.122;11.538;2022-11-15T03:24:24;4.95;;;2.33;;
47519;SDS011;33252;48.122;11.538;2022-11-15T03:26:52;5.38;;;3.05;;
47519;SDS011;33252;48.122;11.538;2022-11-15T03:29:20;6.90;;;2.33;;
47519;SDS011;33252;48.122;11.538;2022-11-15T03:31:57;4.97;;;2.90;;
47519;SDS011;33252;48.122;11.538;2022-11-15T03:34:47;3.88;;;2.35;;
47519;SDS011;33252;48.122;11.538;2022-11-15T03:37:14;4.38;;;2.67;;
47519;SDS011;33252;48.122;11.538;2022-11-15T03:39:42;9.75;;;3.00;;
47519;SDS011;33252;48.122;11.538;2022-11-15T03:42:20;5.38;;;2.65;;
47519;SDS011;33252;48.122;11.538;2022-11-15T03:45:10;2.75;;;2.17;;
47519;SDS011;33252;48.122;11.538;2022-11-15T03:48:01;3.80;;;2.65;;
47519;SDS011;33252;48.122;11.538;2022-11-15T03:50:35;3.63;;;2.30;;
47519;SDS011;33252;48.122;11.538;2022-11-15T03:53:01;4.88;;;2.67;;
47519;SDS011;33252;48.122;11.538;2022-11-15T03:55:27;3.25;;;2.20;;
47519;SDS011;33252;48.122;11.538;2022-11-15T03:57:54;3.95;;;2.78;;
47519;SDS011;33252;48.122;11.538;2022-11-15T04:00:23;3.10;;;2.00;;
47519;SDS011;33252;48.122;11.538;2022-11-15T04:02:48;3.47;;;2.08;;
47519;SDS011;33252;48.122;11.538;2022-11-15T04:05:14;4.72;;;2.58;;
47519;SDS011;33252;48.122;11.538;2022-11-15T04:07:39;4.97;;;2.53;;
47519;SDS011;33252;48.122;11.538;2022-11-15T04:10:05;3.47;;;2.33;;
47519;SDS011;33252;48.122;11.538;2022-11-15T04:12:36;3.60;;;2.38;;
47519;SDS011;33252;48.122;11.538;2022-11-15T04:15:07;4.28;;;2.20;;
47519;SDS011;33252;48.122;11.538;2022-11-15T04:23:03;6.07;;;2.33;;
47519;SDS011;33252;48.122;11.538;2022-11-15T04:25:53;2.65;;;1.90;;
47519;SDS011;33252;48.122;11.538;2022-11-15T04:28:21;5.20;;;3.08;;
47519;SDS011;33252;48.122;11.538;2022-11-15T04:30:47;2.85;;;2.00;;
47519;SDS011;33252;48.122;11.538;2022-11-15T04:33:13;4.32;;;1.85;;
47519;SDS011;33252;48.122;11.538;2022-11-15T04:35:39;4.20;;;2.00;;
47519;SDS011;33252;48.122;11.538;2022-11-15T04:38:06;6.03;;;1.83;;
47519;SDS011;33252;48.122;11.538;2022-11-15T04:40:33;2.92;;;1.83;;
47519;SDS011;33252;48.122;11.538;2022-11-15T04:42:59;2.42;;;1.20;;
47519;SDS011;33252;48.122;11.538;2022-11-15T04:45:25;3.35;;;1.83;;
47519;SDS011;33252;48.122;11.538;2022-11-15T04:47:50;2.20;;;1.60;;
47519;SDS011;33252;48.122;11.538;2022-11-15T04:50:16;3.45;;;1.77;;
47519;SDS011;33252;48.122;11.538;2022-11-15T04:52:43;2.28;;;1.75;;
47519;SDS011;33252;48.122;11.538;2022-11-15T04:55:15;2.60;;;1.65;;
47519;SDS011;33252;48.122;11.538;2022-11-15T04:57:41;2.05;;;1.85;;
47519;SDS011;33252;48.122;11.538;2022-11-15T05:00:10;1.65;;;1.33;;
47519;SDS011;33252;48.122;11.538;2022-11-15T05:02:38;2.83;;;1.77;;
47519;SDS011;33252;48.122;11.538;2022-11-15T05:05:23;3.08;;;1.70;;
47519;SDS011;33252;48.122;11.538;2022-11-15T05:07:49;2.90;;;1.58;;
47519;SDS011;33252;48.122;11.538;2022-11-15T05:10:15;3.05;;;1.80;;
47519;SDS011;33252;48.122;11.538;2022-11-15T05:12:40;2.13;;;1.40;;
47519;SDS011;33252;48.122;11.538;2022-11-15T05:15:06;2.65;;;1.80;;
47519;SDS011;33252;48.122;11.538;2022-11-15T05:17:32;2.13;;;1.60;;
47519;SDS011;33252;48.122;11.538;2022-11-15T05:19:58;4.65;;;2.08;;
47519;SDS011;33252;48.122;11.538;2022-11-15T05:22:23;2.67;;;1.92;;
47519;SDS011;33252;48.122;11.538;2022-11-15T05:24:49;3.33;;;1.88;;
47519;SDS011;33252;48.122;11.538;2022-11-15T05:27:15;2.95;;;1.55;;
47519;SDS011;33252;48.122;11.538;2022-11-15T05:29:40;2.72;;;1.70;;
47519;SDS011;33252;48.122;11.538;2022-11-15T05:32:06;3.13;;;1.83;;
47519;SDS011;33252;48.122;11.538;2022-11-15T05:34:35;3.25;;;2.20;;
47519;SDS011;33252;48.122;11.538;2022-11-15T05:37:00;2.40;;;1.70;;
47519;SDS011;33252;48.122;11.538;2022-11-15T05:39:26;2.08;;;1.75;;
47519;SDS011;33252;48.122;11.538;2022-11-15T05:41:52;5.13;;;2.08;;
47519;SDS011;33252;48.122;11.538;2022-11-15T05:44:24;5.67;;;2.63;;
47519;SDS011;33252;48.122;11.538;2022-11-15T05:46:51;4.57;;;2.05;;
47519;SDS011;33252;48.122;11.538;2022-11-15T05:49:20;3.90;;;2.40;;
47519;SDS011;33252;48.122;11.538;2022-11-15T05:51:48;3.72;;;2.42;;
47519;SDS011;33252;48.122;11.538;2022-11-15T05:54:16;4.05;;;2.15;;
47519;SDS011;33252;48.122;11.538;2022-11-15T05:56:44;3.05;;;2.03;;
47519;SDS011;33252;48.122;11.538;2022-11-15T05:59:10;3.78;;;2.30;;
47519;SDS011;33252;48.122;11.538;2022-11-15T06:01:36;4.72;;;2.70;;
47519;SDS011;33252;48.122;11.538;2022-11-15T06:04:03;3.13;;;2.22;;
47519;SDS011;33252;48.122;11.538;2022-11-15T06:06:29;3.47;;;2.75;;
47519;SDS011;33252;48.122;11.538;2022-11-15T06:08:55;3.42;;;2.45;;
47519;SDS011;33252;48.122;11.538;2022-11-15T06:11:20;4.90;;;2.70;;
47519;SDS011;33252;48.122;11.538;2022-11-15T06:13:46;5.28;;;2.85;;
47519;SDS011;33252;48.122;11.538;2022-11-15T06:16:11;5.40;;;2.65;;
47519;SDS011;33252;48.122;11.538;2022-11-15T06:18:37;4.78;;;3.95;;
47519;SDS011;33252;48.122;11.538;2022-11-15T06:21:04;4.18;;;3.03;;
47519;SDS011;33252;48.122;11.538;2022-11-15T06:23:34;3.75;;;3.28;;
47519;SDS011;33252;48.122;11.538;2022-11-15T06:26:00;4.03;;;3.05;;
47519;SDS011;33252;48.122;11.538;2022-11-15T06:28:30;3.42;;;2.17;;
47519;SDS011;33252;48.122;11.538;2022-11-15T06:31:04;3.90;;;2.80;;
47519;SDS011;33252;48.122;11.538;2022-11-15T06:35:59;3.90;;;2.88;;
47519;SDS011;33252;48.122;11.538;2022-11-15T06:38:29;5.85;;;2.45;;
47519;SDS011;33252;48.122;11.538;2022-11-15T06:40:54;4.22;;;2.10;;
47519;SDS011;33252;48.122;11.538;2022-11-15T06:43:20;3.67;;;1.85;;
47519;SDS011;33252;48.122;11.538;2022-11-15T06:45:46;5.70;;;2.75;;
47519;SDS011;33252;48.122;11.538;2022-11-15T06:48:11;11.23;;;5.10;;
47519;SDS011;33252;48.122;11.538;2022-11-15T06:50:37;3.60;;;2.40;;
47519;SDS011;33252;48.122;11.538;2022-11-15T06:53:03;4.72;;;2.60;;
47519;SDS011;33252;48.122;11.538;2022-11-15T06:55:29;4.03;;;2.42;;
47519;SDS011;33252;48.122;11.538;2022-11-15T06:57:55;5.68;;;2.42;;
47519;SDS011;33252;48.122;11.538;2022-11-15T07:00:21;6.13;;;2.20;;
47519;SDS011;33252;48.122;11.538;2022-11-15T07:02:47;5.68;;;2.83;;
47519;SDS011;33252;48.122;11.538;2022-11-15T07:05:13;10.18;;;3.30;;
47519;SDS011;33252;48.122;11.538;2022-11-15T07:07:40;4.10;;;2.33;;
47519;SDS011;33252;48.122;11.538;2022-11-15T07:10:06;4.30;;;2.30;;
47519;SDS011;33252;48.122;11.538;2022-11-15T07:12:33;5.00;;;2.15;;
47519;SDS011;33252;48.122;11.538;2022-11-15T07:14:59;4.60;;;2.85;;
47519;SDS011;33252;48.122;11.538;2022-11-15T07:17:24;5.57;;;2.70;;
47519;SDS011;33252;48.122;11.538;2022-11-15T07:19:50;3.22;;;2.33;;
47519;SDS011;33252;48.122;11.538;2022-11-15T07:22:16;4.15;;;2.25;;
47519;SDS011;33252;48.122;11.538;2022-11-15T07:24:42;6.47;;;2.95;;
47519;SDS011;33252;48.122;11.538;2022-11-15T07:27:07;2.75;;;2.20;;
47519;SDS011;33252;48.122;11.538;2022-11-15T07:29:33;3.45;;;2.25;;
47519;SDS011;33252;48.122;11.538;2022-11-15T07:31:59;5.05;;;2.08;;
47519;SDS011;33252;48.122;11.538;2022-11-15T07:34:24;6.95;;;2.95;;
47519;SDS011;33252;48.122;11.538;2022-11-15T07:36:50;6.00;;;2.05;;
47519;SDS011;33252;48.122;11.538;2022-11-15T07:39:16;4.57;;;2.40;;
47519;SDS011;33252;48.122;11.538;2022-11-15T07:41:42;4.93;;;2.50;;
47519;SDS011;33252;48.122;11.538;2022-11-15T07:44:08;7.22;;;2.50;;
47519;SDS011;33252;48.122;11.538;2022-11-15T07:46:34;6.00;;;2.75;;
47519;SDS011;33252;48.122;11.538;2022-11-15T07:49:02;8.05;;;2.55;;
47519;SDS011;33252;48.122;11.538;2022-11-15T07:51:27;7.10;;;2.83;;
47519;SDS011;33252;48.122;11.538;2022-11-15T07:53:53;4.75;;;2.75;;
47519;SDS011;33252;48.122;11.538;2022-11-15T07:56:19;4.10;;;2.60;;
47519;SDS011;33252;48.122;11.538;2022-11-15T07:58:45;4.55;;;3.00;;
47519;SDS011;33252;48.122;11.538;2022-11-15T08:01:12;6.03;;;2.58;;
47519;SDS011;33252;48.122;11.538;2022-11-15T08:03:38;6.05;;;2.90;;
47519;SDS011;33252;48.122;11.538;2022-11-15T08:06:03;6.93;;;3.15;;
47519;SDS011;33252;48.122;11.538;2022-11-15T08:08:29;7.30;;;3.40;;
47519;SDS011;33252;48.122;11.538;2022-11-15T08:10:57;6.28;;;3.42;;
47519;SDS011;33252;48.122;11.538;2022-11-15T08:13:23;7.18;;;3.72;;
47519;SDS011;33252;48.122;11.538;2022-11-15T08:15:49;8.40;;;4.55;;
47519;SDS011;33252;48.122;11.538;2022-11-15T08:18:15;8.85;;;4.53;;
47519;SDS011;33252;48.122;11.538;2022-11-15T08:20:41;7.45;;;3.90;;
47519;SDS011;33252;48.122;11.538;2022-11-15T08:23:08;9.57;;;4.60;;
47519;SDS011;33252;48.122;11.538;2022-11-15T08:25:36;8.73;;;4.10;;
47519;SDS011;33252;48.122;11.538;2022-11-15T08:28:04;8.63;;;3.30;;
47519;SDS011;33252;48.122;11.538;2022-11-15T08:30:33;7.00;;;3.30;;
47519;SDS011;33252;48.122;11.538;2022-11-15T08:33:01;5.88;;;3.10;;
47519;SDS011;33252;48.122;11.538;2022-11-15T08:35:27;5.95;;;3.75;;
47519;SDS011;33252;48.122;11.538;2022-11-15T08:37:53;8.48;;;3.92;;
47519;SDS011;33252;48.122;11.538;2022-11-15T08:40:19;8.55;;;3.65;;
47519;SDS011;33252;48.122;11.538;2022-11-15T08:42:48;8.38;;;3.72;;
47519;SDS011;33252;48.122;11.538;2022-11-15T08:45:14;7.05;;;4.10;;
47519;SDS011;33252;48.122;11.538;2022-11-15T08:47:40;11.60;;;5.35;;
47519;SDS011;33252;48.122;11.538;2022-11-15T08:50:06;7.10;;;3.63;;
47519;SDS011;33252;48.122;11.538;2022-11-15T08:52:32;9.48;;;4.65;;
47519;SDS011;33252;48.122;11.538;2022-11-15T08:54:57;7.07;;;4.28;;
47519;SDS011;33252;48.122;11.538;2022-11-15T08:57:24;10.57;;;3.53;;
47519;SDS011;33252;48.122;11.538;2022-11-15T08:59:49;6.55;;;3.10;;
47519;SDS011;33252;48.122;11.538;2022-11-15T09:02:15;8.70;;;4.15;;
47519;SDS011;33252;48.122;11.538;2022-11-15T09:04:41;9.77;;;3.63;;
47519;SDS011;33252;48.122;11.538;2022-11-15T09:07:08;10.57;;;3.80;;
47519;SDS011;33252;48.122;11.538;2022-11-15T09:09:35;6.88;;;4.28;;
47519;SDS011;33252;48.122;11.538;2022-11-15T09:12:01;5.13;;;3.13;;
47519;SDS011;33252;48.122;11.538;2022-11-15T09:14:26;5.88;;;3.17;;
47519;SDS011;33252;48.122;11.538;2022-11-15T09:16:52;3.75;;;2.65;;
47519;SDS011;33252;48.122;11.538;2022-11-15T09:19:18;3.55;;;2.20;;
47519;SDS011;33252;48.122;11.538;2022-11-15T09:21:43;5.13;;;3.50;;
47519;SDS011;33252;48.122;11.538;2022-11-15T09:24:09;6.32;;;3.17;;
47519;SDS011;33252;48.122;11.538;2022-11-15T09:26:34;5.97;;;3.50;;
47519;SDS011;33252;48.122;11.538;2022-11-15T09:29:00;3.78;;;2.70;;
47519;SDS011;33252;48.122;11.538;2022-11-15T09:31:26;6.38;;;3.75;;
47519;SDS011;33252;48.122;11.538;2022-11-15T09:33:54;6.18;;;4.05;;
47519;SDS011;33252;48.122;11.538;2022-11-15T09:36:20;9.18;;;3.20;;
47519;SDS011;33252;48.122;11.538;2022-11-15T09:38:45;9.13;;;3.60;;
47519;SDS011;33252;48.122;11.538;2022-11-15T09:49:09;6.25;;;4.78;;
47519;SDS011;33252;48.122;11.538;2022-11-15T09:51:40;9.10;;;3.35;;
47519;SDS011;33252;48.122;11.538;2022-11-15T09:54:34;5.18;;;2.80;;
47519;SDS011;33252;48.122;11.538;2022-11-15T09:57:05;6.18;;;3.25;;
47519;SDS011;33252;48.122;11.538;2022-11-15T10:05:33;9.05;;;3.47;;
47519;SDS011;33252;48.122;11.538;2022-11-15T10:10:58;7.53;;;3.50;;
47519;SDS011;33252;48.122;11.538;2022-11-15T10:13:28;4.75;;;4.03;;
47519;SDS011;33252;48.122;11.538;2022-11-15T10:22:15;5.05;;;3.15;;
47519;SDS011;33252;48.122;11.538;2022-11-15T10:27:33;4.70;;;2.97;;
47519;SDS011;33252;48.122;11.538;2022-11-15T10:29:59;6.22;;;4.28;;
47519;SDS011;33252;48.122;11.538;2022-11-15T10:32:25;4.32;;;2.72;;
47519;SDS011;33252;48.122;11.538;2022-11-15T10:34:52;2.55;;;1.88;;
47519;SDS011;33252;48.122;11.538;2022-11-15T10:37:27;5.13;;;2.47;;
47519;SDS011;33252;48.122;11.538;2022-11-15T10:40:04;3.25;;;2.25;;
47519;SDS011;33252;48.122;11.538;2022-11-15T10:42:31;3.85;;;1.98;;
47519;SDS011;33252;48.122;11.538;2022-11-15T10:44:57;3.63;;;2.10;;
47519;SDS011;33252;48.122;11.538;2022-11-15T10:47:23;3.05;;;1.65;;
47519;SDS011;33252;48.122;11.538;2022-11-15T10:49:56;3.10;;;1.77;;
47519;SDS011;33252;48.122;11.538;2022-11-15T10:52:30;5.72;;;2.45;;
47519;SDS011;33252;48.122;11.538;2022-11-15T10:57:26;2.05;;;1.48;;
47519;SDS011;33252;48.122;11.538;2022-11-15T10:59:59;3.00;;;1.92;;
47519;SDS011;33252;48.122;11.538;2022-11-15T11:02:37;2.03;;;1.50;;
47519;SDS011;33252;48.122;11.538;2022-11-15T11:05:50;4.20;;;2.28;;
47519;SDS011;33252;48.122;11.538;2022-11-15T11:11:02;3.22;;;1.35;;
47519;SDS011;33252;48.122;11.538;2022-11-15T11:13:30;4.13;;;1.65;;
47519;SDS011;33252;48.122;11.538;2022-11-15T11:21:08;2.92;;;1.45;;
47519;SDS011;33252;48.122;11.538;2022-11-15T11:23:41;2.08;;;1.13;;
47519;SDS011;33252;48.122;11.538;2022-11-15T11:42:56;3.88;;;1.45;;
47519;SDS011;33252;48.122;11.538;2022-11-15T11:50:45;3.85;;;1.48;;
47519;SDS011;33252;48.122;11.538;2022-11-15T11:53:17;2.75;;;1.92;;
47519;SDS011;33252;48.122;11.538;2022-11-15T11:56:38;3.35;;;1.60;;
47519;SDS011;33252;48.122;11.538;2022-11-15T11:58:47;1.10;;;0.70;;
47519;SDS011;33252;48.122;11.538;2022-11-15T12:01:25;1.27;;;0.88;;
47519;SDS011;33252;48.122;11.538;2022-11-15T12:04:03;3.40;;;1.83;;
47519;SDS011;33252;48.122;11.538;2022-11-15T12:06:59;3.25;;;1.30;;
47519;SDS011;33252;48.122;11.538;2022-11-15T12:09:30;1.52;;;0.77;;
47519;SDS011;33252;48.122;11.538;2022-11-15T12:14:55;2.78;;;1.33;;
47519;SDS011;33252;48.122;11.538;2022-11-15T12:17:33;1.73;;;1.20;;
47519;SDS011;33252;48.122;11.538;2022-11-15T12:20:00;2.17;;;0.98;;
47519;SDS011;33252;48.122;11.538;2022-11-15T12:22:42;1.58;;;1.00;;
47519;SDS011;33252;48.122;11.538;2022-11-15T12:25:44;1.83;;;1.23;;
47519;SDS011;33252;48.122;11.538;2022-11-15T12:33:46;2.33;;;1.17;;
47519;SDS011;33252;48.122;11.538;2022-11-15T12:41:25;2.63;;;1.42;;
47519;SDS011;33252;48.122;11.538;2022-11-15T12:43:52;10.18;;;5.60;;
47519;SDS011;33252;48.122;11.538;2022-11-15T12:51:22;1.90;;;0.93;;
47519;SDS011;33252;48.122;11.538;2022-11-15T13:02:30;2.78;;;1.70;;
47519;SDS011;33252;48.122;11.538;2022-11-15T13:17:45;2.17;;;1.38;;
47519;SDS011;33252;48.122;11.538;2022-11-15T13:22:41;4.90;;;1.50;;
47519;SDS011;33252;48.122;11.538;2022-11-15T13:39:00;2.63;;;1.20;;
47519;SDS011;33252;48.122;11.538;2022-11-15T13:41:32;3.45;;;1.50;;
47519;SDS011;33252;48.122;11.538;2022-11-15T13:44:00;2.65;;;1.50;;
47519;SDS011;33252;48.122;11.538;2022-11-15T13:46:30;1.90;;;1.02;;
47519;SDS011;33252;48.122;11.538;2022-11-15T13:49:08;5.00;;;1.27;;
47519;SDS011;33252;48.122;11.538;2022-11-15T13:51:43;2.65;;;1.60;;
47519;SDS011;33252;48.122;11.538;2022-11-15T13:56:45;4.53;;;2.97;;
47519;SDS011;33252;48.122;11.538;2022-11-15T13:59:19;2.10;;;1.75;;
47519;SDS011;33252;48.122;11.538;2022-11-15T14:01:51;3.50;;;1.23;;
47519;SDS011;33252;48.122;11.538;2022-11-15T14:04:19;2.33;;;1.98;;
47519;SDS011;33252;48.122;11.538;2022-11-15T14:06:51;1.95;;;1.25;;
47519;SDS011;33252;48.122;11.538;2022-11-15T14:11:58;3.28;;;1.35;;
47519;SDS011;33252;48.122;11.538;2022-11-15T14:14:26;2.95;;;1.50;;
47519;SDS011;33252;48.122;11.538;2022-11-15T14:16:54;6.32;;;1.67;;
47519;SDS011;33252;48.122;11.538;2022-11-15T14:24:46;2.13;;;1.90;;
47519;SDS011;33252;48.122;11.538;2022-11-15T14:27:30;2.90;;;1.75;;
47519;SDS011;33252;48.122;11.538;2022-11-15T14:29:57;3.72;;;1.70;;
47519;SDS011;33252;48.122;11.538;2022-11-15T14:35:00;2.00;;;1.23;;
47519;SDS011;33252;48.122;11.538;2022-11-15T14:37:31;1.20;;;1.00;;
47519;SDS011;33252;48.122;11.538;2022-11-15T14:42:26;4.93;;;1.38;;
47519;SDS011;33252;48.122;11.538;2022-11-15T14:44:52;3.40;;;1.50;;
47519;SDS011;33252;48.122;11.538;2022-11-15T14:47:17;3.05;;;1.40;;
47519;SDS011;33252;48.122;11.538;2022-11-15T14:49:43;2.97;;;1.90;;
47519;SDS011;33252;48.122;11.538;2022-11-15T14:52:26;3.38;;;1.52;;
47519;SDS011;33252;48.122;11.538;2022-11-15T14:54:54;3.38;;;2.22;;
47519;SDS011;33252;48.122;11.538;2022-11-15T14:57:24;2.50;;;1.52;;
47519;SDS011;33252;48.122;11.538;2022-11-15T14:59:49;4.38;;;2.25;;
47519;SDS011;33252;48.122;11.538;2022-11-15T15:02:16;4.85;;;1.90;;
47519;SDS011;33252;48.122;11.538;2022-11-15T15:04:50;2.90;;;1.80;;
47519;SDS011;33252;48.122;11.538;2022-11-15T15:07:16;7.45;;;2.83;;
47519;SDS011;33252;48.122;11.538;2022-11-15T15:09:43;3.85;;;2.53;;
47519;SDS011;33252;48.122;11.538;2022-11-15T15:12:21;5.00;;;2.97;;
47519;SDS011;33252;48.122;11.538;2022-11-15T15:14:48;4.78;;;2.40;;
47519;SDS011;33252;48.122;11.538;2022-11-15T15:17:15;7.90;;;3.90;;
47519;SDS011;33252;48.122;11.538;2022-11-15T15:19:41;6.90;;;3.10;;
47519;SDS011;33252;48.122;11.538;2022-11-15T15:22:17;5.85;;;3.42;;
47519;SDS011;33252;48.122;11.538;2022-11-15T15:24:44;5.38;;;4.07;;
47519;SDS011;33252;48.122;11.538;2022-11-15T15:27:11;5.63;;;3.70;;
47519;SDS011;33252;48.122;11.538;2022-11-15T15:29:37;10.18;;;4.80;;
47519;SDS011;33252;48.122;11.538;2022-11-15T15:32:03;5.78;;;4.10;;
47519;SDS011;33252;48.122;11.538;2022-11-15T15:34:30;9.68;;;5.63;;
47519;SDS011;33252;48.122;11.538;2022-11-15T15:42:19;7.97;;;5.30;;
47519;SDS011;33252;48.122;11.538;2022-11-15T15:44:46;11.05;;;6.32;;
47519;SDS011;33252;48.122;11.538;2022-11-15T15:47:16;10.88;;;7.55;;
47519;SDS011;33252;48.122;11.538;2022-11-15T15:49:45;11.57;;;6.88;;
47519;SDS011;33252;48.122;11.538;2022-11-15T15:52:11;11.10;;;7.07;;
47519;SDS011;33252;48.122;11.538;2022-11-15T15:54:37;10.25;;;7.70;;
47519;SDS011;33252;48.122;11.538;2022-11-15T15:57:03;13.68;;;9.02;;
47519;SDS011;33252;48.122;11.538;2022-11-15T15:59:30;12.30;;;8.38;;
47519;SDS011;33252;48.122;11.538;2022-11-15T16:01:56;17.48;;;12.23;;
47519;SDS011;33252;48.122;11.538;2022-11-15T16:04:22;14.48;;;8.10;;
47519;SDS011;33252;48.122;11.538;2022-11-15T16:06:47;17.52;;;11.48;;
47519;SDS011;33252;48.122;11.538;2022-11-15T16:09:16;14.25;;;9.18;;
47519;SDS011;33252;48.122;11.538;2022-11-15T16:11:43;9.52;;;7.15;;
47519;SDS011;33252;48.122;11.538;2022-11-15T16:14:10;9.63;;;6.78;;
47519;SDS011;33252;48.122;11.538;2022-11-15T16:16:36;11.45;;;7.15;;
47519;SDS011;33252;48.122;11.538;2022-11-15T16:19:02;10.52;;;7.85;;
47519;SDS011;33252;48.122;11.538;2022-11-15T16:21:28;12.68;;;7.20;;
47519;SDS011;33252;48.122;11.538;2022-11-15T16:23:54;10.73;;;7.38;;
47519;SDS011;33252;48.122;11.538;2022-11-15T16:26:21;12.65;;;7.65;;
47519;SDS011;33252;48.122;11.538;2022-11-15T16:28:51;12.73;;;7.10;;
47519;SDS011;33252;48.122;11.538;2022-11-15T16:31:17;11.00;;;6.40;;
47519;SDS011;33252;48.122;11.538;2022-11-15T16:33:46;12.10;;;6.72;;
47519;SDS011;33252;48.122;11.538;2022-11-15T16:36:19;10.32;;;7.07;;
47519;SDS011;33252;48.122;11.538;2022-11-15T16:38:49;10.30;;;7.20;;
47519;SDS011;33252;48.122;11.538;2022-11-15T16:41:18;14.20;;;7.32;;
47519;SDS011;33252;48.122;11.538;2022-11-15T16:43:44;10.20;;;6.95;;
47519;SDS011;33252;48.122;11.538;2022-11-15T16:46:15;8.88;;;6.22;;
47519;SDS011;33252;48.122;11.538;2022-11-15T16:48:41;11.32;;;7.07;;
47519;SDS011;33252;48.122;11.538;2022-11-15T16:51:07;8.77;;;7.50;;
47519;SDS011;33252;48.122;11.538;2022-11-15T16:53:33;12.30;;;9.07;;
47519;SDS011;33252;48.122;11.538;2022-11-15T16:55:58;16.27;;;10.52;;
47519;SDS011;33252;48.122;11.538;2022-11-15T16:58:24;19.33;;;12.52;;
47519;SDS011;33252;48.122;11.538;2022-11-15T17:00:51;14.50;;;10.32;;
47519;SDS011;33252;48.122;11.538;2022-11-15T17:03:23;14.45;;;9.80;;
47519;SDS011;33252;48.122;11.538;2022-11-15T17:05:49;16.73;;;9.43;;
47519;SDS011;33252;48.122;11.538;2022-11-15T17:08:15;13.55;;;10.48;;
47519;SDS011;33252;48.122;11.538;2022-11-15T17:10:41;17.02;;;10.30;;
47519;SDS011;33252;48.122;11.538;2022-11-15T17:13:11;14.13;;;9.77;;
47519;SDS011;33252;48.122;11.538;2022-11-15T17:15:37;14.85;;;8.65;;
47519;SDS011;33252;48.122;11.538;2022-11-15T17:18:08;15.05;;;10.05;;
47519;SDS011;33252;48.122;11.538;2022-11-15T17:20:36;14.57;;;9.45;;
47519;SDS011;33252;48.122;11.538;2022-11-15T17:23:01;11.43;;;8.75;;
47519;SDS011;33252;48.122;11.538;2022-11-15T17:25:27;16.17;;;9.60;;
47519;SDS011;33252;48.122;11.538;2022-11-15T17:27:53;17.17;;;9.82;;
47519;SDS011;33252;48.122;11.538;2022-11-15T17:30:20;16.90;;;11.70;;
47519;SDS011;33252;48.122;11.538;2022-11-15T17:32:46;15.52;;;10.00;;
47519;SDS011;33252;48.122;11.538;2022-11-15T17:35:12;17.50;;;9.82;;
47519;SDS011;33252;48.122;11.538;2022-11-15T17:37:37;16.52;;;10.15;;
47519;SDS011;33252;48.122;11.538;2022-11-15T17:40:03;18.25;;;10.00;;